sensor_id;sensor_type;location;lat;lon;timestamp;P1;durP1;ratioP1;P2;durP2;ratioP2
2706;SDS011;7819;48.046;7.642;2022-09-06T00:01:20;2.20;;;2.00;;
2706;SDS011;7819;48.046;7.642;2022-09-06T00:03:47;2.73;;;2.40;;
2706;SDS011;7819;48.046;7.642;2022-09-06T00:06:13;4.77;;;2.70;;
2706;SDS011;7819;48.046;7.642;2022-09-06T00:08:39;3.67;;;2.43;;
2706;SDS011;7819;48.046;7.642;2022-09-06T00:11:05;6.90;;;2.87;;
2706;SDS011;7819;48.046;7.642;2022-09-06T00:13:30;3.00;;;2.53;;
2706;SDS011;7819;48.046;7.642;2022-09-06T00:15:55;3.20;;;2.80;;
2706;SDS011;7819;48.046;7.642;2022-09-06T00:18:21;3.00;;;2.70;;
2706;SDS011;7819;48.046;7.642;2022-09-06T00:20:46;2.87;;;2.43;;
2706;SDS011;7819;48.046;7.642;2022-09-06T00:23:11;4.23;;;2.80;;
2706;SDS011;7819;48.046;7.642;2022-09-06T00:25:36;4.17;;;2.77;;
2706;SDS011;7819;48.046;7.642;2022-09-06T00:28:03;3.07;;;2.77;;
2706;SDS011;7819;48.046;7.642;2022-09-06T00:30:29;5.10;;;3.30;;
2706;SDS011;7819;48.046;7.642;2022-09-06T00:32:54;5.83;;;4.33;;
2706;SDS011;7819;48.046;7.642;2022-09-06T00:35:20;11.00;;;3.57;;
2706;SDS011;7819;48.046;7.642;2022-09-06T00:37:46;3.93;;;3.43;;
2706;SDS011;7819;48.046;7.642;2022-09-06T00:40:11;3.33;;;2.80;;
2706;SDS011;7819;48.046;7.642;2022-09-06T00:42:37;3.73;;;2.97;;
2706;SDS011;7819;48.046;7.642;2022-09-06T00:45:03;2.93;;;2.70;;
2706;SDS011;7819;48.046;7.642;2022-09-06T00:47:29;3.80;;;2.80;;
2706;SDS011;7819;48.046;7.642;2022-09-06T00:49:54;6.70;;;2.90;;
2706;SDS011;7819;48.046;7.642;2022-09-06T00:52:20;5.53;;;3.30;;
2706;SDS011;7819;48.046;7.642;2022-09-06T00:54:46;3.50;;;3.07;;
2706;SDS011;7819;48.046;7.642;2022-09-06T00:57:13;4.13;;;2.90;;
2706;SDS011;7819;48.046;7.642;2022-09-06T00:59:39;3.17;;;2.87;;
2706;SDS011;7819;48.046;7.642;2022-09-06T01:02:06;4.13;;;2.80;;
2706;SDS011;7819;48.046;7.642;2022-09-06T01:04:33;4.73;;;2.73;;
2706;SDS011;7819;48.046;7.642;2022-09-06T01:07:02;3.40;;;3.10;;
2706;SDS011;7819;48.046;7.642;2022-09-06T01:09:37;7.77;;;3.63;;
2706;SDS011;7819;48.046;7.642;2022-09-06T01:12:12;4.03;;;2.77;;
2706;SDS011;7819;48.046;7.642;2022-09-06T01:22:31;3.57;;;2.73;;
2706;SDS011;7819;48.046;7.642;2022-09-06T01:30:09;4.13;;;2.90;;
2706;SDS011;7819;48.046;7.642;2022-09-06T01:35:19;3.03;;;2.83;;
2706;SDS011;7819;48.046;7.642;2022-09-06T01:37:47;5.00;;;3.33;;
2706;SDS011;7819;48.046;7.642;2022-09-06T01:40:13;3.90;;;2.93;;
2706;SDS011;7819;48.046;7.642;2022-09-06T01:42:38;3.87;;;2.93;;
2706;SDS011;7819;48.046;7.642;2022-09-06T01:45:08;3.53;;;3.20;;
2706;SDS011;7819;48.046;7.642;2022-09-06T01:47:42;5.53;;;3.13;;
2706;SDS011;7819;48.046;7.642;2022-09-06T01:50:53;3.50;;;2.70;;
2706;SDS011;7819;48.046;7.642;2022-09-06T01:55:50;7.63;;;3.77;;
2706;SDS011;7819;48.046;7.642;2022-09-06T02:06:19;4.63;;;4.03;;
2706;SDS011;7819;48.046;7.642;2022-09-06T02:08:47;7.20;;;3.83;;
2706;SDS011;7819;48.046;7.642;2022-09-06T02:11:13;4.00;;;3.63;;
2706;SDS011;7819;48.046;7.642;2022-09-06T02:13:49;4.43;;;3.37;;
2706;SDS011;7819;48.046;7.642;2022-09-06T02:16:17;3.53;;;3.23;;
2706;SDS011;7819;48.046;7.642;2022-09-06T02:18:46;5.60;;;3.50;;
2706;SDS011;7819;48.046;7.642;2022-09-06T02:21:15;6.77;;;3.73;;
2706;SDS011;7819;48.046;7.642;2022-09-06T02:23:42;4.70;;;3.93;;
2706;SDS011;7819;48.046;7.642;2022-09-06T02:28:33;4.57;;;4.17;;
2706;SDS011;7819;48.046;7.642;2022-09-06T02:31:00;4.30;;;3.90;;
2706;SDS011;7819;48.046;7.642;2022-09-06T02:33:27;4.47;;;4.00;;
2706;SDS011;7819;48.046;7.642;2022-09-06T02:35:54;4.33;;;3.80;;
2706;SDS011;7819;48.046;7.642;2022-09-06T02:38:20;6.47;;;3.93;;
2706;SDS011;7819;48.046;7.642;2022-09-06T02:40:46;6.00;;;3.57;;
2706;SDS011;7819;48.046;7.642;2022-09-06T02:43:12;6.47;;;3.50;;
2706;SDS011;7819;48.046;7.642;2022-09-06T02:45:37;7.10;;;3.80;;
2706;SDS011;7819;48.046;7.642;2022-09-06T02:48:03;3.73;;;3.43;;
2706;SDS011;7819;48.046;7.642;2022-09-06T02:50:28;3.87;;;3.30;;
2706;SDS011;7819;48.046;7.642;2022-09-06T02:55:28;5.47;;;3.20;;
2706;SDS011;7819;48.046;7.642;2022-09-06T02:57:53;4.20;;;3.80;;
2706;SDS011;7819;48.046;7.642;2022-09-06T03:00:18;3.47;;;3.17;;
2706;SDS011;7819;48.046;7.642;2022-09-06T03:02:43;3.87;;;3.40;;
2706;SDS011;7819;48.046;7.642;2022-09-06T03:05:08;3.73;;;3.30;;
2706;SDS011;7819;48.046;7.642;2022-09-06T03:07:34;5.77;;;3.17;;
2706;SDS011;7819;48.046;7.642;2022-09-06T03:09:59;3.70;;;3.37;;
2706;SDS011;7819;48.046;7.642;2022-09-06T03:12:24;7.33;;;3.40;;
2706;SDS011;7819;48.046;7.642;2022-09-06T03:14:49;3.83;;;3.53;;
2706;SDS011;7819;48.046;7.642;2022-09-06T03:17:15;4.03;;;3.23;;
2706;SDS011;7819;48.046;7.642;2022-09-06T03:19:40;3.20;;;2.93;;
2706;SDS011;7819;48.046;7.642;2022-09-06T03:22:05;3.10;;;2.80;;
2706;SDS011;7819;48.046;7.642;2022-09-06T03:24:30;4.93;;;3.40;;
2706;SDS011;7819;48.046;7.642;2022-09-06T03:26:55;3.90;;;3.07;;
2706;SDS011;7819;48.046;7.642;2022-09-06T03:29:20;3.37;;;3.00;;
2706;SDS011;7819;48.046;7.642;2022-09-06T03:31:46;3.53;;;3.23;;
2706;SDS011;7819;48.046;7.642;2022-09-06T03:34:11;3.30;;;2.83;;
2706;SDS011;7819;48.046;7.642;2022-09-06T03:36:36;3.30;;;3.00;;
2706;SDS011;7819;48.046;7.642;2022-09-06T03:39:01;3.10;;;2.80;;
2706;SDS011;7819;48.046;7.642;2022-09-06T03:41:26;3.30;;;3.00;;
2706;SDS011;7819;48.046;7.642;2022-09-06T03:43:51;3.50;;;3.20;;
2706;SDS011;7819;48.046;7.642;2022-09-06T03:46:17;4.83;;;3.33;;
2706;SDS011;7819;48.046;7.642;2022-09-06T03:48:42;5.37;;;3.10;;
2706;SDS011;7819;48.046;7.642;2022-09-06T03:51:07;6.20;;;4.27;;
2706;SDS011;7819;48.046;7.642;2022-09-06T03:53:32;5.20;;;3.20;;
2706;SDS011;7819;48.046;7.642;2022-09-06T03:55:57;7.07;;;3.90;;
2706;SDS011;7819;48.046;7.642;2022-09-06T03:58:23;5.63;;;3.60;;
2706;SDS011;7819;48.046;7.642;2022-09-06T04:00:48;5.47;;;3.53;;
2706;SDS011;7819;48.046;7.642;2022-09-06T04:03:14;5.20;;;3.80;;
2706;SDS011;7819;48.046;7.642;2022-09-06T04:05:39;3.20;;;2.90;;
2706;SDS011;7819;48.046;7.642;2022-09-06T04:08:08;5.73;;;3.80;;
2706;SDS011;7819;48.046;7.642;2022-09-06T04:10:33;4.43;;;3.77;;
2706;SDS011;7819;48.046;7.642;2022-09-06T04:12:58;3.83;;;3.03;;
2706;SDS011;7819;48.046;7.642;2022-09-06T04:15:24;3.60;;;2.90;;
2706;SDS011;7819;48.046;7.642;2022-09-06T04:17:49;4.43;;;3.60;;
2706;SDS011;7819;48.046;7.642;2022-09-06T04:20:14;4.27;;;3.80;;
2706;SDS011;7819;48.046;7.642;2022-09-06T04:22:39;3.67;;;2.43;;
2706;SDS011;7819;48.046;7.642;2022-09-06T04:25:05;4.40;;;3.50;;
2706;SDS011;7819;48.046;7.642;2022-09-06T04:27:30;4.80;;;3.77;;
2706;SDS011;7819;48.046;7.642;2022-09-06T04:29:56;6.23;;;4.00;;
2706;SDS011;7819;48.046;7.642;2022-09-06T04:32:21;4.63;;;3.70;;
2706;SDS011;7819;48.046;7.642;2022-09-06T04:34:46;4.57;;;3.80;;
2706;SDS011;7819;48.046;7.642;2022-09-06T04:37:12;3.70;;;3.40;;
2706;SDS011;7819;48.046;7.642;2022-09-06T04:39:38;5.20;;;3.60;;
2706;SDS011;7819;48.046;7.642;2022-09-06T04:42:03;4.47;;;4.07;;
2706;SDS011;7819;48.046;7.642;2022-09-06T04:44:29;6.50;;;4.10;;
2706;SDS011;7819;48.046;7.642;2022-09-06T04:47:04;7.10;;;4.17;;
2706;SDS011;7819;48.046;7.642;2022-09-06T04:49:30;4.23;;;3.80;;
2706;SDS011;7819;48.046;7.642;2022-09-06T04:51:55;3.73;;;3.40;;
2706;SDS011;7819;48.046;7.642;2022-09-06T04:54:20;4.37;;;3.47;;
2706;SDS011;7819;48.046;7.642;2022-09-06T04:56:45;4.30;;;3.60;;
2706;SDS011;7819;48.046;7.642;2022-09-06T04:59:11;5.70;;;3.60;;
2706;SDS011;7819;48.046;7.642;2022-09-06T05:01:36;3.87;;;3.40;;
2706;SDS011;7819;48.046;7.642;2022-09-06T05:04:01;11.30;;;5.20;;
2706;SDS011;7819;48.046;7.642;2022-09-06T05:06:26;5.70;;;3.63;;
2706;SDS011;7819;48.046;7.642;2022-09-06T05:08:51;6.00;;;3.63;;
2706;SDS011;7819;48.046;7.642;2022-09-06T05:11:17;7.17;;;5.20;;
2706;SDS011;7819;48.046;7.642;2022-09-06T05:13:42;4.80;;;3.60;;
2706;SDS011;7819;48.046;7.642;2022-09-06T05:16:09;6.50;;;4.23;;
2706;SDS011;7819;48.046;7.642;2022-09-06T05:18:34;5.00;;;3.60;;
2706;SDS011;7819;48.046;7.642;2022-09-06T05:20:59;4.70;;;4.17;;
2706;SDS011;7819;48.046;7.642;2022-09-06T05:23:24;4.13;;;3.30;;
2706;SDS011;7819;48.046;7.642;2022-09-06T05:25:50;7.43;;;4.37;;
2706;SDS011;7819;48.046;7.642;2022-09-06T05:28:15;10.10;;;4.20;;
2706;SDS011;7819;48.046;7.642;2022-09-06T05:30:40;4.60;;;4.20;;
2706;SDS011;7819;48.046;7.642;2022-09-06T05:33:09;4.90;;;4.40;;
2706;SDS011;7819;48.046;7.642;2022-09-06T05:35:35;11.00;;;10.20;;
2706;SDS011;7819;48.046;7.642;2022-09-06T05:38:00;5.20;;;4.17;;
2706;SDS011;7819;48.046;7.642;2022-09-06T05:40:25;5.23;;;4.33;;
2706;SDS011;7819;48.046;7.642;2022-09-06T05:42:50;4.60;;;4.17;;
2706;SDS011;7819;48.046;7.642;2022-09-06T05:45:15;5.97;;;4.40;;
2706;SDS011;7819;48.046;7.642;2022-09-06T05:47:41;4.20;;;3.83;;
2706;SDS011;7819;48.046;7.642;2022-09-06T05:50:06;4.10;;;3.20;;
2706;SDS011;7819;48.046;7.642;2022-09-06T05:52:32;10.13;;;4.30;;
2706;SDS011;7819;48.046;7.642;2022-09-06T05:54:58;5.20;;;3.40;;
2706;SDS011;7819;48.046;7.642;2022-09-06T05:57:24;4.23;;;3.80;;
2706;SDS011;7819;48.046;7.642;2022-09-06T05:59:49;6.87;;;4.23;;
2706;SDS011;7819;48.046;7.642;2022-09-06T06:02:14;5.70;;;5.07;;
2706;SDS011;7819;48.046;7.642;2022-09-06T06:04:39;6.87;;;5.47;;
2706;SDS011;7819;48.046;7.642;2022-09-06T06:07:04;9.73;;;5.20;;
2706;SDS011;7819;48.046;7.642;2022-09-06T06:09:29;4.80;;;4.23;;
2706;SDS011;7819;48.046;7.642;2022-09-06T06:11:55;8.43;;;4.10;;
2706;SDS011;7819;48.046;7.642;2022-09-06T06:14:20;4.70;;;4.17;;
2706;SDS011;7819;48.046;7.642;2022-09-06T06:16:45;7.23;;;3.93;;
2706;SDS011;7819;48.046;7.642;2022-09-06T06:19:10;5.90;;;4.77;;
2706;SDS011;7819;48.046;7.642;2022-09-06T06:21:35;8.10;;;3.93;;
2706;SDS011;7819;48.046;7.642;2022-09-06T06:24:02;6.00;;;4.57;;
2706;SDS011;7819;48.046;7.642;2022-09-06T06:26:30;5.67;;;5.13;;
2706;SDS011;7819;48.046;7.642;2022-09-06T06:28:55;4.63;;;4.23;;
2706;SDS011;7819;48.046;7.642;2022-09-06T06:31:22;4.70;;;4.17;;
2706;SDS011;7819;48.046;7.642;2022-09-06T06:33:48;5.00;;;4.00;;
2706;SDS011;7819;48.046;7.642;2022-09-06T06:38:39;4.25;;;3.85;;
2706;SDS011;7819;48.046;7.642;2022-09-06T06:41:05;6.47;;;4.37;;
2706;SDS011;7819;48.046;7.642;2022-09-06T06:43:30;7.70;;;4.33;;
2706;SDS011;7819;48.046;7.642;2022-09-06T06:48:30;4.53;;;4.00;;
2706;SDS011;7819;48.046;7.642;2022-09-06T06:50:55;5.63;;;5.10;;
2706;SDS011;7819;48.046;7.642;2022-09-06T06:53:20;6.60;;;4.93;;
2706;SDS011;7819;48.046;7.642;2022-09-06T06:55:45;5.47;;;4.67;;
2706;SDS011;7819;48.046;7.642;2022-09-06T06:58:12;4.97;;;4.30;;
2706;SDS011;7819;48.046;7.642;2022-09-06T07:00:38;6.33;;;5.20;;
2706;SDS011;7819;48.046;7.642;2022-09-06T07:03:03;5.97;;;4.57;;
2706;SDS011;7819;48.046;7.642;2022-09-06T07:05:28;5.87;;;4.53;;
2706;SDS011;7819;48.046;7.642;2022-09-06T07:07:53;4.80;;;4.30;;
2706;SDS011;7819;48.046;7.642;2022-09-06T07:10:19;5.80;;;5.30;;
2706;SDS011;7819;48.046;7.642;2022-09-06T07:12:44;7.10;;;4.30;;
2706;SDS011;7819;48.046;7.642;2022-09-06T07:15:09;7.53;;;4.80;;
2706;SDS011;7819;48.046;7.642;2022-09-06T07:17:34;6.80;;;5.10;;
2706;SDS011;7819;48.046;7.642;2022-09-06T07:20:00;8.37;;;5.13;;
2706;SDS011;7819;48.046;7.642;2022-09-06T07:22:25;9.63;;;5.40;;
2706;SDS011;7819;48.046;7.642;2022-09-06T07:24:50;7.67;;;4.90;;
2706;SDS011;7819;48.046;7.642;2022-09-06T07:27:15;12.63;;;5.17;;
2706;SDS011;7819;48.046;7.642;2022-09-06T07:29:40;7.97;;;4.83;;
2706;SDS011;7819;48.046;7.642;2022-09-06T07:32:06;7.77;;;4.47;;
2706;SDS011;7819;48.046;7.642;2022-09-06T07:34:31;7.10;;;5.03;;
2706;SDS011;7819;48.046;7.642;2022-09-06T07:36:57;6.30;;;4.60;;
2706;SDS011;7819;48.046;7.642;2022-09-06T07:39:22;6.47;;;4.00;;
2706;SDS011;7819;48.046;7.642;2022-09-06T07:41:48;6.40;;;3.83;;
2706;SDS011;7819;48.046;7.642;2022-09-06T07:44:13;6.27;;;4.73;;
2706;SDS011;7819;48.046;7.642;2022-09-06T07:46:38;4.17;;;3.37;;
2706;SDS011;7819;48.046;7.642;2022-09-06T07:49:04;5.00;;;4.50;;
2706;SDS011;7819;48.046;7.642;2022-09-06T07:51:29;4.93;;;4.43;;
2706;SDS011;7819;48.046;7.642;2022-09-06T07:53:55;9.97;;;5.70;;
2706;SDS011;7819;48.046;7.642;2022-09-06T07:56:20;5.77;;;4.10;;
2706;SDS011;7819;48.046;7.642;2022-09-06T07:58:46;10.63;;;5.00;;
2706;SDS011;7819;48.046;7.642;2022-09-06T08:01:12;5.13;;;4.63;;
2706;SDS011;7819;48.046;7.642;2022-09-06T08:03:37;5.30;;;4.57;;
2706;SDS011;7819;48.046;7.642;2022-09-06T08:06:02;5.70;;;4.53;;
2706;SDS011;7819;48.046;7.642;2022-09-06T08:08:28;5.13;;;4.40;;
2706;SDS011;7819;48.046;7.642;2022-09-06T08:10:53;10.67;;;5.47;;
2706;SDS011;7819;48.046;7.642;2022-09-06T08:13:18;6.57;;;5.00;;
2706;SDS011;7819;48.046;7.642;2022-09-06T08:15:43;5.83;;;5.23;;
2706;SDS011;7819;48.046;7.642;2022-09-06T08:18:08;16.03;;;9.30;;
2706;SDS011;7819;48.046;7.642;2022-09-06T08:20:33;13.68;;;9.20;;
2706;SDS011;7819;48.046;7.642;2022-09-06T08:22:58;13.97;;;9.60;;
2706;SDS011;7819;48.046;7.642;2022-09-06T08:25:24;10.53;;;7.17;;
2706;SDS011;7819;48.046;7.642;2022-09-06T08:27:49;7.17;;;5.73;;
2706;SDS011;7819;48.046;7.642;2022-09-06T08:30:14;7.47;;;5.00;;
2706;SDS011;7819;48.046;7.642;2022-09-06T08:32:40;9.03;;;5.80;;
2706;SDS011;7819;48.046;7.642;2022-09-06T08:35:06;11.20;;;6.77;;
2706;SDS011;7819;48.046;7.642;2022-09-06T08:37:32;6.20;;;4.43;;
2706;SDS011;7819;48.046;7.642;2022-09-06T08:39:57;6.30;;;4.93;;
2706;SDS011;7819;48.046;7.642;2022-09-06T08:42:22;4.90;;;3.80;;
2706;SDS011;7819;48.046;7.642;2022-09-06T08:44:49;7.37;;;4.43;;
2706;SDS011;7819;48.046;7.642;2022-09-06T08:47:16;5.60;;;4.73;;
2706;SDS011;7819;48.046;7.642;2022-09-06T08:49:42;6.97;;;5.00;;
2706;SDS011;7819;48.046;7.642;2022-09-06T09:00:04;10.10;;;6.33;;
2706;SDS011;7819;48.046;7.642;2022-09-06T09:05:33;6.07;;;4.83;;
2706;SDS011;7819;48.046;7.642;2022-09-06T09:08:00;7.40;;;3.67;;
2706;SDS011;7819;48.046;7.642;2022-09-06T09:10:27;5.60;;;4.40;;
2706;SDS011;7819;48.046;7.642;2022-09-06T09:12:52;10.37;;;4.60;;
2706;SDS011;7819;48.046;7.642;2022-09-06T09:15:19;5.40;;;4.03;;
2706;SDS011;7819;48.046;7.642;2022-09-06T09:17:45;6.00;;;4.73;;
2706;SDS011;7819;48.046;7.642;2022-09-06T09:20:11;5.87;;;4.23;;
2706;SDS011;7819;48.046;7.642;2022-09-06T09:22:36;9.40;;;4.07;;
2706;SDS011;7819;48.046;7.642;2022-09-06T09:25:03;5.53;;;3.80;;
2706;SDS011;7819;48.046;7.642;2022-09-06T09:27:28;5.00;;;3.70;;
2706;SDS011;7819;48.046;7.642;2022-09-06T09:29:56;6.87;;;4.80;;
2706;SDS011;7819;48.046;7.642;2022-09-06T09:37:43;11.97;;;4.57;;
2706;SDS011;7819;48.046;7.642;2022-09-06T09:40:48;6.60;;;4.50;;
2706;SDS011;7819;48.046;7.642;2022-09-06T09:43:13;5.90;;;4.73;;
2706;SDS011;7819;48.046;7.642;2022-09-06T09:45:39;5.90;;;4.57;;
2706;SDS011;7819;48.046;7.642;2022-09-06T09:48:15;8.10;;;4.90;;
2706;SDS011;7819;48.046;7.642;2022-09-06T09:50:41;4.57;;;3.60;;
2706;SDS011;7819;48.046;7.642;2022-09-06T09:53:10;3.77;;;3.47;;
2706;SDS011;7819;48.046;7.642;2022-09-06T09:55:35;6.20;;;4.00;;
2706;SDS011;7819;48.046;7.642;2022-09-06T09:58:01;5.40;;;4.37;;
2706;SDS011;7819;48.046;7.642;2022-09-06T10:00:31;5.37;;;4.43;;
2706;SDS011;7819;48.046;7.642;2022-09-06T10:02:56;7.77;;;4.60;;
2706;SDS011;7819;48.046;7.642;2022-09-06T10:05:22;6.70;;;4.67;;
2706;SDS011;7819;48.046;7.642;2022-09-06T10:07:48;5.83;;;4.50;;
2706;SDS011;7819;48.046;7.642;2022-09-06T10:12:40;10.40;;;5.07;;
2706;SDS011;7819;48.046;7.642;2022-09-06T10:15:06;5.70;;;3.97;;
2706;SDS011;7819;48.046;7.642;2022-09-06T10:17:36;7.10;;;4.80;;
2706;SDS011;7819;48.046;7.642;2022-09-06T10:20:05;4.77;;;4.20;;
2706;SDS011;7819;48.046;7.642;2022-09-06T10:28:13;7.13;;;4.20;;
2706;SDS011;7819;48.046;7.642;2022-09-06T10:35:49;4.17;;;3.63;;
2706;SDS011;7819;48.046;7.642;2022-09-06T10:38:22;5.67;;;3.90;;
2706;SDS011;7819;48.046;7.642;2022-09-06T10:41:02;5.50;;;4.17;;
2706;SDS011;7819;48.046;7.642;2022-09-06T10:43:36;6.33;;;4.30;;
2706;SDS011;7819;48.046;7.642;2022-09-06T10:46:09;4.90;;;4.23;;
2706;SDS011;7819;48.046;7.642;2022-09-06T10:48:39;6.70;;;3.33;;
2706;SDS011;7819;48.046;7.642;2022-09-06T10:51:06;6.57;;;4.83;;
2706;SDS011;7819;48.046;7.642;2022-09-06T10:56:12;8.97;;;4.67;;
2706;SDS011;7819;48.046;7.642;2022-09-06T10:59:25;9.73;;;3.67;;
2706;SDS011;7819;48.046;7.642;2022-09-06T11:01:33;5.53;;;4.60;;
2706;SDS011;7819;48.046;7.642;2022-09-06T11:04:00;4.87;;;3.10;;
2706;SDS011;7819;48.046;7.642;2022-09-06T11:06:30;8.70;;;4.20;;
2706;SDS011;7819;48.046;7.642;2022-09-06T11:11:43;6.00;;;3.80;;
2706;SDS011;7819;48.046;7.642;2022-09-06T11:14:13;5.67;;;3.53;;
2706;SDS011;7819;48.046;7.642;2022-09-06T11:16:44;3.90;;;3.57;;
2706;SDS011;7819;48.046;7.642;2022-09-06T11:19:13;5.83;;;4.00;;
2706;SDS011;7819;48.046;7.642;2022-09-06T11:22:02;6.20;;;3.10;;
2706;SDS011;7819;48.046;7.642;2022-09-06T11:24:35;3.50;;;3.20;;
2706;SDS011;7819;48.046;7.642;2022-09-06T11:29:30;4.97;;;4.50;;
2706;SDS011;7819;48.046;7.642;2022-09-06T11:31:57;4.40;;;3.17;;
2706;SDS011;7819;48.046;7.642;2022-09-06T11:34:26;6.13;;;3.13;;
2706;SDS011;7819;48.046;7.642;2022-09-06T11:36:56;4.90;;;3.27;;
2706;SDS011;7819;48.046;7.642;2022-09-06T11:39:23;3.90;;;2.90;;
2706;SDS011;7819;48.046;7.642;2022-09-06T11:41:48;4.87;;;3.37;;
2706;SDS011;7819;48.046;7.642;2022-09-06T11:44:19;10.80;;;3.10;;
2706;SDS011;7819;48.046;7.642;2022-09-06T11:46:59;3.77;;;3.20;;
2706;SDS011;7819;48.046;7.642;2022-09-06T11:49:28;6.63;;;3.50;;
2706;SDS011;7819;48.046;7.642;2022-09-06T11:51:54;5.47;;;3.33;;
2706;SDS011;7819;48.046;7.642;2022-09-06T11:54:21;4.57;;;2.90;;
2706;SDS011;7819;48.046;7.642;2022-09-06T11:56:52;3.47;;;2.87;;
2706;SDS011;7819;48.046;7.642;2022-09-06T12:07:12;3.77;;;3.20;;
2706;SDS011;7819;48.046;7.642;2022-09-06T12:09:41;4.03;;;2.73;;
2706;SDS011;7819;48.046;7.642;2022-09-06T12:12:06;6.03;;;2.70;;
2706;SDS011;7819;48.046;7.642;2022-09-06T12:14:41;4.70;;;2.87;;
2706;SDS011;7819;48.046;7.642;2022-09-06T12:24:51;2.67;;;2.43;;
2706;SDS011;7819;48.046;7.642;2022-09-06T12:29:59;4.63;;;2.40;;
2706;SDS011;7819;48.046;7.642;2022-09-06T12:32:26;8.37;;;3.33;;
2706;SDS011;7819;48.046;7.642;2022-09-06T12:34:52;5.93;;;2.90;;
2706;SDS011;7819;48.046;7.642;2022-09-06T12:37:29;6.10;;;2.83;;
2706;SDS011;7819;48.046;7.642;2022-09-06T12:39:55;3.90;;;2.80;;
2706;SDS011;7819;48.046;7.642;2022-09-06T12:42:21;3.57;;;2.60;;
2706;SDS011;7819;48.046;7.642;2022-09-06T12:44:47;5.83;;;3.03;;
2706;SDS011;7819;48.046;7.642;2022-09-06T12:49:44;5.50;;;3.40;;
2706;SDS011;7819;48.046;7.642;2022-09-06T12:52:11;3.33;;;2.67;;
2706;SDS011;7819;48.046;7.642;2022-09-06T12:54:41;7.93;;;3.47;;
2706;SDS011;7819;48.046;7.642;2022-09-06T12:57:10;5.37;;;2.70;;
2706;SDS011;7819;48.046;7.642;2022-09-06T12:59:36;3.53;;;2.43;;
2706;SDS011;7819;48.046;7.642;2022-09-06T13:02:02;6.10;;;2.67;;
2706;SDS011;7819;48.046;7.642;2022-09-06T13:06:54;4.53;;;3.20;;
2706;SDS011;7819;48.046;7.642;2022-09-06T13:09:20;4.57;;;2.77;;
2706;SDS011;7819;48.046;7.642;2022-09-06T13:11:47;4.57;;;2.70;;
2706;SDS011;7819;48.046;7.642;2022-09-06T13:14:16;3.83;;;2.70;;
2706;SDS011;7819;48.046;7.642;2022-09-06T13:16:43;5.17;;;2.90;;
2706;SDS011;7819;48.046;7.642;2022-09-06T13:19:10;4.20;;;3.03;;
2706;SDS011;7819;48.046;7.642;2022-09-06T13:21:37;5.60;;;4.50;;
2706;SDS011;7819;48.046;7.642;2022-09-06T13:24:16;3.53;;;2.90;;
2706;SDS011;7819;48.046;7.642;2022-09-06T13:26:41;5.00;;;2.43;;
2706;SDS011;7819;48.046;7.642;2022-09-06T13:31:34;10.07;;;3.30;;
2706;SDS011;7819;48.046;7.642;2022-09-06T13:34:00;4.50;;;2.50;;
2706;SDS011;7819;48.046;7.642;2022-09-06T13:36:25;7.53;;;3.30;;
2706;SDS011;7819;48.046;7.642;2022-09-06T13:38:51;3.67;;;3.23;;
2706;SDS011;7819;48.046;7.642;2022-09-06T13:43:58;6.93;;;3.33;;
2706;SDS011;7819;48.046;7.642;2022-09-06T13:46:24;7.77;;;2.63;;
2706;SDS011;7819;48.046;7.642;2022-09-06T13:48:52;5.17;;;2.77;;
2706;SDS011;7819;48.046;7.642;2022-09-06T13:51:17;5.93;;;3.00;;
2706;SDS011;7819;48.046;7.642;2022-09-06T13:53:43;4.20;;;2.43;;
2706;SDS011;7819;48.046;7.642;2022-09-06T13:56:08;4.20;;;2.50;;
2706;SDS011;7819;48.046;7.642;2022-09-06T13:58:33;5.20;;;2.97;;
2706;SDS011;7819;48.046;7.642;2022-09-06T14:00:59;5.60;;;2.83;;
2706;SDS011;7819;48.046;7.642;2022-09-06T14:03:25;3.23;;;2.57;;
2706;SDS011;7819;48.046;7.642;2022-09-06T14:05:52;4.47;;;2.93;;
2706;SDS011;7819;48.046;7.642;2022-09-06T14:08:17;2.80;;;2.50;;
2706;SDS011;7819;48.046;7.642;2022-09-06T14:10:42;8.40;;;3.37;;
2706;SDS011;7819;48.046;7.642;2022-09-06T14:13:07;3.50;;;2.27;;
2706;SDS011;7819;48.046;7.642;2022-09-06T14:15:33;4.03;;;3.03;;
2706;SDS011;7819;48.046;7.642;2022-09-06T14:17:58;4.10;;;2.57;;
2706;SDS011;7819;48.046;7.642;2022-09-06T14:20:23;4.33;;;2.83;;
2706;SDS011;7819;48.046;7.642;2022-09-06T14:22:48;7.00;;;3.67;;
2706;SDS011;7819;48.046;7.642;2022-09-06T14:25:13;3.77;;;3.30;;
2706;SDS011;7819;48.046;7.642;2022-09-06T14:27:39;3.27;;;2.50;;
2706;SDS011;7819;48.046;7.642;2022-09-06T14:30:04;7.60;;;3.60;;
2706;SDS011;7819;48.046;7.642;2022-09-06T14:32:29;5.33;;;2.90;;
2706;SDS011;7819;48.046;7.642;2022-09-06T14:34:55;2.60;;;2.40;;
2706;SDS011;7819;48.046;7.642;2022-09-06T14:37:20;5.70;;;2.27;;
2706;SDS011;7819;48.046;7.642;2022-09-06T14:39:46;6.03;;;2.80;;
2706;SDS011;7819;48.046;7.642;2022-09-06T14:42:11;11.80;;;5.63;;
2706;SDS011;7819;48.046;7.642;2022-09-06T14:44:37;3.73;;;2.53;;
2706;SDS011;7819;48.046;7.642;2022-09-06T14:47:03;11.83;;;3.37;;
2706;SDS011;7819;48.046;7.642;2022-09-06T14:49:28;4.90;;;2.20;;
2706;SDS011;7819;48.046;7.642;2022-09-06T14:51:53;3.30;;;2.10;;
2706;SDS011;7819;48.046;7.642;2022-09-06T14:54:18;4.00;;;1.87;;
2706;SDS011;7819;48.046;7.642;2022-09-06T14:56:44;4.50;;;2.00;;
2706;SDS011;7819;48.046;7.642;2022-09-06T14:59:10;4.07;;;1.90;;
2706;SDS011;7819;48.046;7.642;2022-09-06T15:01:36;1.90;;;1.70;;
2706;SDS011;7819;48.046;7.642;2022-09-06T15:04:02;6.87;;;1.47;;
2706;SDS011;7819;48.046;7.642;2022-09-06T15:06:28;1.97;;;1.70;;
2706;SDS011;7819;48.046;7.642;2022-09-06T15:08:54;4.17;;;1.83;;
2706;SDS011;7819;48.046;7.642;2022-09-06T15:11:27;3.17;;;2.00;;
2706;SDS011;7819;48.046;7.642;2022-09-06T15:13:54;2.40;;;1.90;;
2706;SDS011;7819;48.046;7.642;2022-09-06T15:16:19;4.50;;;1.90;;
2706;SDS011;7819;48.046;7.642;2022-09-06T15:18:45;4.20;;;2.63;;
2706;SDS011;7819;48.046;7.642;2022-09-06T15:21:11;3.10;;;1.60;;
2706;SDS011;7819;48.046;7.642;2022-09-06T15:23:36;3.57;;;2.37;;
2706;SDS011;7819;48.046;7.642;2022-09-06T15:26:02;2.63;;;2.27;;
2706;SDS011;7819;48.046;7.642;2022-09-06T15:28:30;5.77;;;3.27;;
2706;SDS011;7819;48.046;7.642;2022-09-06T15:30:57;2.63;;;2.00;;
2706;SDS011;7819;48.046;7.642;2022-09-06T15:33:23;2.97;;;2.00;;
2706;SDS011;7819;48.046;7.642;2022-09-06T15:35:52;2.80;;;1.80;;
2706;SDS011;7819;48.046;7.642;2022-09-06T15:38:17;2.23;;;1.10;;
2706;SDS011;7819;48.046;7.642;2022-09-06T15:40:42;1.90;;;1.50;;
2706;SDS011;7819;48.046;7.642;2022-09-06T15:43:08;3.53;;;1.80;;
2706;SDS011;7819;48.046;7.642;2022-09-06T15:45:36;2.73;;;1.80;;
2706;SDS011;7819;48.046;7.642;2022-09-06T15:48:10;2.23;;;1.57;;
2706;SDS011;7819;48.046;7.642;2022-09-06T15:50:37;2.23;;;1.10;;
2706;SDS011;7819;48.046;7.642;2022-09-06T15:53:03;2.10;;;1.33;;
2706;SDS011;7819;48.046;7.642;2022-09-06T15:55:29;2.13;;;1.13;;
2706;SDS011;7819;48.046;7.642;2022-09-06T15:58:12;1.80;;;1.07;;
2706;SDS011;7819;48.046;7.642;2022-09-06T16:00:37;1.23;;;0.90;;
2706;SDS011;7819;48.046;7.642;2022-09-06T16:03:03;1.97;;;0.90;;
2706;SDS011;7819;48.046;7.642;2022-09-06T16:05:28;1.80;;;1.20;;
2706;SDS011;7819;48.046;7.642;2022-09-06T16:07:53;4.40;;;1.10;;
2706;SDS011;7819;48.046;7.642;2022-09-06T16:10:18;1.87;;;0.93;;
2706;SDS011;7819;48.046;7.642;2022-09-06T16:12:44;2.07;;;1.30;;
2706;SDS011;7819;48.046;7.642;2022-09-06T16:15:09;1.83;;;1.20;;
2706;SDS011;7819;48.046;7.642;2022-09-06T16:17:34;2.63;;;1.10;;
2706;SDS011;7819;48.046;7.642;2022-09-06T16:20:00;1.20;;;0.97;;
2706;SDS011;7819;48.046;7.642;2022-09-06T16:22:25;1.40;;;1.10;;
2706;SDS011;7819;48.046;7.642;2022-09-06T16:24:50;2.47;;;1.10;;
2706;SDS011;7819;48.046;7.642;2022-09-06T16:27:16;1.93;;;1.40;;
2706;SDS011;7819;48.046;7.642;2022-09-06T16:29:41;2.43;;;1.10;;
2706;SDS011;7819;48.046;7.642;2022-09-06T16:32:06;1.83;;;1.10;;
2706;SDS011;7819;48.046;7.642;2022-09-06T16:34:31;2.30;;;1.00;;
2706;SDS011;7819;48.046;7.642;2022-09-06T16:36:57;2.60;;;1.10;;
2706;SDS011;7819;48.046;7.642;2022-09-06T16:39:22;1.27;;;0.87;;
2706;SDS011;7819;48.046;7.642;2022-09-06T16:41:48;1.20;;;0.80;;
2706;SDS011;7819;48.046;7.642;2022-09-06T16:44:14;2.30;;;1.17;;
2706;SDS011;7819;48.046;7.642;2022-09-06T16:46:40;1.37;;;0.73;;
2706;SDS011;7819;48.046;7.642;2022-09-06T16:49:05;1.97;;;1.53;;
2706;SDS011;7819;48.046;7.642;2022-09-06T16:51:30;2.80;;;0.70;;
2706;SDS011;7819;48.046;7.642;2022-09-06T16:53:56;2.53;;;1.00;;